createdAt,value
2022-08-05T00:00:35.232Z,27.94
2022-08-05T00:01:35.758Z,27.94
2022-08-05T00:02:35.278Z,27.81
2022-08-05T00:03:35.213Z,27.94
2022-08-05T00:04:35.224Z,27.81
2022-08-05T00:06:05.341Z,27.79
2022-08-05T00:06:36.074Z,27.77
2022-08-05T00:07:59.625Z,27.78
2022-08-05T00:08:36.262Z,27.74
2022-08-05T00:09:35.276Z,27.65
2022-08-05T00:10:35.282Z,27.49
2022-08-05T00:11:49.049Z,27.47
2022-08-05T00:12:35.324Z,27.40
2022-08-05T00:13:38.268Z,27.43
2022-08-05T00:14:35.338Z,27.41
2022-08-05T00:15:57.828Z,27.40
2022-08-05T00:16:52.108Z,27.41
2022-08-05T00:17:35.329Z,27.43
2022-08-05T00:18:35.357Z,27.39
2022-08-05T00:19:45.658Z,27.43
2022-08-05T00:20:35.371Z,27.40
2022-08-05T00:21:35.735Z,27.29
2022-08-05T00:22:35.385Z,27.29
2022-08-05T00:23:45.768Z,27.32
2022-08-05T00:24:35.403Z,27.27
2022-08-05T00:25:45.467Z,27.25
2022-08-05T00:26:35.415Z,27.14
2022-08-05T00:27:36.201Z,27.13
2022-08-05T00:28:35.426Z,27.12
2022-08-05T00:29:38.073Z,27.10
2022-08-05T00:30:35.447Z,27.04
2022-08-05T00:31:53.912Z,27.07
2022-08-05T00:32:35.985Z,27.00
2022-08-05T00:34:53.950Z,27.06
2022-08-05T00:34:54.816Z,27.03
2022-08-05T00:35:35.507Z,27.09
2022-08-05T00:37:10.448Z,27.14
2022-08-05T00:37:52.661Z,27.13
2022-08-05T00:38:35.526Z,27.07
2022-08-05T00:39:37.173Z,27.12
2022-08-05T00:40:35.541Z,27.12
2022-08-05T00:41:51.546Z,27.12
2022-08-05T00:42:35.568Z,27.12
2022-08-05T00:43:46.721Z,27.06
2022-08-05T00:44:35.562Z,27.06
2022-08-05T00:45:38.412Z,27.10
2022-08-05T00:46:42.615Z,27.04
2022-08-05T00:47:52.980Z,27.13
2022-08-05T00:48:35.601Z,27.09
2022-08-05T00:49:51.301Z,27.06
2022-08-05T00:50:35.716Z,27.04
2022-08-05T00:51:50.713Z,26.97
2022-08-05T00:52:35.630Z,26.88
2022-08-05T00:53:45.166Z,26.82
2022-08-05T00:54:35.640Z,26.76
2022-08-05T00:55:43.526Z,26.72
2022-08-05T00:56:35.682Z,26.76
2022-08-05T00:57:55.235Z,26.67
2022-08-05T00:58:35.658Z,26.63
2022-08-05T00:59:44.455Z,26.48
2022-08-05T01:00:35.714Z,26.54
2022-08-05T01:01:42.565Z,26.57
2022-08-05T01:02:35.707Z,26.51
2022-08-05T01:03:35.724Z,26.55
2022-08-05T01:04:35.705Z,26.55
2022-08-05T01:05:35.735Z,26.48
2022-08-05T01:06:35.731Z,26.52
2022-08-05T01:07:35.742Z,26.52
2022-08-05T01:08:43.058Z,26.55
2022-08-05T01:09:35.760Z,26.57
2022-08-05T01:10:35.764Z,26.60
2022-08-05T01:11:37.431Z,26.50
2022-08-05T01:12:35.777Z,26.50
2022-08-05T01:13:57.287Z,26.57
2022-08-05T01:14:35.798Z,26.55
2022-08-05T01:15:36.830Z,26.52
2022-08-05T01:16:35.801Z,26.50
2022-08-05T01:17:39.950Z,26.58
2022-08-05T01:18:35.826Z,26.51
2022-08-05T01:20:01.569Z,26.51
2022-08-05T01:20:35.851Z,26.50
2022-08-05T01:21:38.235Z,26.54
2022-08-05T01:22:35.863Z,26.50
2022-08-05T01:23:35.855Z,26.48
2022-08-05T01:24:35.885Z,26.57
2022-08-05T01:25:40.020Z,26.58
2022-08-05T01:26:35.879Z,26.66
2022-08-05T01:27:35.920Z,26.54
2022-08-05T01:28:35.901Z,26.58
2022-08-05T01:29:35.901Z,26.55
2022-08-05T01:30:35.920Z,26.69
2022-08-05T01:31:42.567Z,26.55
2022-08-05T01:32:35.933Z,26.48
2022-08-05T01:33:36.109Z,26.54
2022-08-05T01:34:35.995Z,26.47
2022-08-05T01:35:51.638Z,26.45
2022-08-05T01:36:35.952Z,26.50
2022-08-05T01:37:36.688Z,26.45
2022-08-05T01:38:35.979Z,26.50
2022-08-05T01:39:45.841Z,26.54
2022-08-05T01:40:36.021Z,26.39
2022-08-05T01:41:36.252Z,26.55
2022-08-05T01:42:35.998Z,26.39
2022-08-05T01:43:36.008Z,26.44
2022-08-05T01:44:36.014Z,26.45
2022-08-05T01:45:43.020Z,26.48
2022-08-05T01:46:42.984Z,26.45
2022-08-05T01:47:39.619Z,26.51
2022-08-05T01:48:36.071Z,26.44
2022-08-05T01:49:42.799Z,26.39
2022-08-05T01:50:36.059Z,26.32
2022-08-05T01:51:36.087Z,26.40
2022-08-05T01:52:36.071Z,26.39
2022-08-05T01:53:54.869Z,26.35
2022-08-05T01:54:46.240Z,26.39
2022-08-05T01:55:36.454Z,26.37
2022-08-05T01:58:11.158Z,26.39
2022-08-05T01:58:11.254Z,26.39
2022-08-05T01:58:44.590Z,26.44
2022-08-05T01:59:36.134Z,26.39
2022-08-05T02:00:36.179Z,26.36
2022-08-05T02:01:40.008Z,26.40
2022-08-05T02:02:36.293Z,26.39
2022-08-05T02:03:36.173Z,26.29
2022-08-05T02:04:36.180Z,26.25
2022-08-05T02:05:36.510Z,26.37
2022-08-05T02:06:38.235Z,26.23
2022-08-05T02:07:36.212Z,26.35
2022-08-05T02:08:44.720Z,26.36
2022-08-05T02:09:36.230Z,26.36
2022-08-05T02:10:36.214Z,26.35
2022-08-05T02:11:36.229Z,26.43
2022-08-05T02:12:36.241Z,26.37
2022-08-05T02:13:36.491Z,26.39
2022-08-05T02:14:36.252Z,26.40
2022-08-05T02:15:36.263Z,26.36
2022-08-05T02:16:36.266Z,26.40
2022-08-05T02:18:28.706Z,26.40
2022-08-05T02:18:36.726Z,26.43
2022-08-05T02:19:36.293Z,26.37
2022-08-05T02:20:39.045Z,26.36
2022-08-05T02:21:43.097Z,26.40
2022-08-05T02:22:36.301Z,26.36
2022-08-05T02:23:36.314Z,26.40
2022-08-05T02:24:36.324Z,26.39
2022-08-05T02:25:50.206Z,26.37
2022-08-05T02:26:36.359Z,26.37
2022-08-05T02:27:58.177Z,26.29
2022-08-05T02:28:38.436Z,26.29
2022-08-05T02:29:59.542Z,26.29
2022-08-05T02:30:36.366Z,26.26
2022-08-05T02:31:36.389Z,26.28
2022-08-05T02:32:36.376Z,26.21
2022-08-05T02:33:38.738Z,26.20
2022-08-05T02:34:36.396Z,26.21
2022-08-05T02:35:38.623Z,26.26
2022-08-05T02:36:36.424Z,26.15
2022-08-05T02:37:36.427Z,26.17
2022-08-05T02:38:36.421Z,26.09
2022-08-05T02:39:36.473Z,26.09
2022-08-05T02:40:36.469Z,26.10
2022-08-05T02:41:57.462Z,26.12
2022-08-05T02:42:36.465Z,26.13
2022-08-05T02:43:36.466Z,25.99
2022-08-05T02:44:36.477Z,26.12
2022-08-05T02:45:52.597Z,26.01
2022-08-05T02:46:36.484Z,25.97
2022-08-05T02:48:07.495Z,25.90
2022-08-05T02:48:36.496Z,25.91
2022-08-05T02:49:40.340Z,25.90
2022-08-05T02:50:36.526Z,25.94
2022-08-05T02:52:04.493Z,25.90
2022-08-05T02:52:36.535Z,25.91
2022-08-05T02:53:39.379Z,25.90
2022-08-05T02:54:37.200Z,25.95
2022-08-05T02:55:54.629Z,25.99
2022-08-05T02:56:36.560Z,25.94
2022-08-05T02:58:09.912Z,25.90
2022-08-05T02:58:36.577Z,25.98
2022-08-05T02:59:50.123Z,25.90
2022-08-05T03:00:36.589Z,25.94
2022-08-05T03:01:36.648Z,25.85
2022-08-05T03:02:36.621Z,25.87
2022-08-05T03:04:02.720Z,25.87
2022-08-05T03:04:36.611Z,25.90
2022-08-05T03:06:55.755Z,25.90
2022-08-05T03:06:57.160Z,25.85
2022-08-05T03:08:00.505Z,25.88
2022-08-05T03:08:36.743Z,25.87
2022-08-05T03:09:38.175Z,25.87
2022-08-05T03:10:36.667Z,25.95
2022-08-05T03:11:55.561Z,25.94
2022-08-05T03:12:36.682Z,25.92
2022-08-05T03:13:52.069Z,25.95
2022-08-05T03:14:40.886Z,25.95
2022-08-05T03:15:36.693Z,25.95
2022-08-05T03:16:36.701Z,25.95
2022-08-05T03:17:40.703Z,25.92
2022-08-05T03:18:36.829Z,25.92
2022-08-05T03:19:36.755Z,25.91
2022-08-05T03:20:36.732Z,25.95
2022-08-05T03:21:41.517Z,25.94
2022-08-05T03:22:36.750Z,25.91
2022-08-05T03:23:36.758Z,25.91
2022-08-05T03:24:36.780Z,25.92
2022-08-05T03:26:03.826Z,25.91
2022-08-05T03:26:36.784Z,25.92
2022-08-05T03:27:57.842Z,25.94
2022-08-05T03:28:36.804Z,25.92
2022-08-05T03:29:45.762Z,25.97
2022-08-05T03:30:36.826Z,25.92
2022-08-05T03:31:55.624Z,25.95
2022-08-05T03:32:36.853Z,25.94
2022-08-05T03:33:51.188Z,25.94
2022-08-05T03:34:36.841Z,26.06
2022-08-05T03:35:41.269Z,26.05
2022-08-05T03:36:36.864Z,26.07
2022-08-05T03:37:46.244Z,25.98
2022-08-05T03:38:37.563Z,25.99
2022-08-05T03:39:58.487Z,26.06
2022-08-05T03:40:36.896Z,26.09
2022-08-05T03:41:38.820Z,26.05
2022-08-05T03:42:41.800Z,26.05
2022-08-05T03:44:09.405Z,25.97
2022-08-05T03:44:36.920Z,26.01
2022-08-05T03:45:57.254Z,26.06
2022-08-05T03:46:36.933Z,26.01
2022-08-05T03:47:41.357Z,26.02
2022-08-05T03:48:36.974Z,25.99
2022-08-05T03:49:51.133Z,26.01
2022-08-05T03:50:36.959Z,26.01
2022-08-05T03:52:37.324Z,26.05
2022-08-05T03:54:59.258Z,25.99
2022-08-05T03:55:00.031Z,26.09
2022-08-05T03:55:34.547Z,26.07
2022-08-05T03:56:04.960Z,26.13
2022-08-05T03:56:37.001Z,26.02
2022-08-05T03:57:42.536Z,26.05
2022-08-05T03:58:37.025Z,26.07
2022-08-05T03:59:47.032Z,26.07
2022-08-05T04:00:37.018Z,26.07
2022-08-05T04:01:37.074Z,25.99
2022-08-05T04:02:38.993Z,26.01
2022-08-05T04:03:38.082Z,26.07
2022-08-05T04:04:37.072Z,26.13
2022-08-05T04:05:37.071Z,26.05
2022-08-05T04:06:37.061Z,26.07
2022-08-05T04:07:37.070Z,26.02
2022-08-05T04:08:37.140Z,26.12
2022-08-05T04:09:37.104Z,26.01
2022-08-05T04:10:38.366Z,25.99
2022-08-05T04:11:50.767Z,26.10
2022-08-05T04:12:58.762Z,26.05
2022-08-05T04:13:51.288Z,25.98
2022-08-05T04:14:44.741Z,26.02
2022-08-05T04:15:37.127Z,26.05
2022-08-05T04:16:37.138Z,26.09
2022-08-05T04:17:55.519Z,25.98
2022-08-05T04:18:37.176Z,26.02
2022-08-05T04:19:37.158Z,26.09
2022-08-05T04:20:37.166Z,25.98
2022-08-05T04:22:09.669Z,26.09
2022-08-05T04:22:37.192Z,26.06
2022-08-05T04:24:04.800Z,26.02
2022-08-05T04:24:37.204Z,25.99
2022-08-05T04:25:57.829Z,26.01
2022-08-05T04:26:37.224Z,26.05
2022-08-05T04:27:43.600Z,26.02
2022-08-05T04:28:37.249Z,26.01
2022-08-05T04:29:37.275Z,26.01
2022-08-05T04:30:37.274Z,26.01
2022-08-05T04:31:38.630Z,26.02
2022-08-05T04:32:37.636Z,25.99
2022-08-05T04:34:18.479Z,26.05
2022-08-05T04:34:43.035Z,26.07
2022-08-05T04:36:11.394Z,26.09
2022-08-05T04:36:49.796Z,26.18
2022-08-05T04:38:02.285Z,26.13
2022-08-05T04:38:39.628Z,26.15
2022-08-05T04:39:37.342Z,26.13
2022-08-05T04:40:37.327Z,26.07
2022-08-05T04:41:38.769Z,26.21
2022-08-05T04:42:37.375Z,26.26
2022-08-05T04:43:37.335Z,26.23
2022-08-05T04:44:37.342Z,26.30
2022-08-05T04:45:48.987Z,26.28
2022-08-05T04:46:37.355Z,26.26
2022-08-05T04:47:38.598Z,26.33
2022-08-05T04:48:37.372Z,26.39
2022-08-05T04:50:01.006Z,26.37
2022-08-05T04:51:03.022Z,26.44
2022-08-05T04:51:37.399Z,26.44
2022-08-05T04:52:37.403Z,26.47
2022-08-05T04:53:38.895Z,26.44
2022-08-05T04:54:37.435Z,26.48
2022-08-05T04:56:00.048Z,26.52
2022-08-05T04:56:37.545Z,26.52
2022-08-05T04:57:37.491Z,26.52
2022-08-05T04:58:37.481Z,26.51
2022-08-05T04:59:39.214Z,26.54
2022-08-05T05:00:37.460Z,26.65
2022-08-05T05:02:07.775Z,26.67
2022-08-05T05:02:43.087Z,26.67
2022-08-05T05:03:42.313Z,26.72
2022-08-05T05:04:38.325Z,26.66
2022-08-05T05:06:35.868Z,26.75
2022-08-05T05:06:44.950Z,26.75
2022-08-05T05:07:37.718Z,26.69
2022-08-05T05:08:37.534Z,26.81
2022-08-05T05:09:38.112Z,26.80
2022-08-05T05:10:37.557Z,26.91
2022-08-05T05:11:41.558Z,26.85
2022-08-05T05:12:37.549Z,26.97
2022-08-05T05:13:43.489Z,26.99
2022-08-05T05:14:37.568Z,26.89
2022-08-05T05:15:57.832Z,26.95
2022-08-05T05:16:37.584Z,27.06
2022-08-05T05:17:56.632Z,27.09
2022-08-05T05:18:37.614Z,27.06
2022-08-05T05:19:44.423Z,27.13
2022-08-05T05:20:37.629Z,27.13
2022-08-05T05:21:37.618Z,27.13
2022-08-05T05:22:40.684Z,27.12
2022-08-05T05:24:01.832Z,27.13
2022-08-05T05:24:57.335Z,27.10
2022-08-05T05:25:41.055Z,27.14
2022-08-05T05:26:37.676Z,27.13
2022-08-05T05:27:41.791Z,27.18
2022-08-05T05:28:38.983Z,27.13
2022-08-05T05:30:03.628Z,27.24
2022-08-05T05:30:37.682Z,27.17
2022-08-05T05:31:58.736Z,27.12
2022-08-05T05:32:37.699Z,27.13
2022-08-05T05:33:58.820Z,27.13
2022-08-05T05:34:37.727Z,27.14
2022-08-05T05:35:39.698Z,27.07
2022-08-05T05:36:37.735Z,27.17
2022-08-05T05:38:00.305Z,27.14
2022-08-05T05:38:37.752Z,27.10
2022-08-05T05:39:37.887Z,27.24
2022-08-05T05:40:37.773Z,27.14
2022-08-05T05:41:40.778Z,27.17
2022-08-05T05:42:37.795Z,27.25
2022-08-05T05:43:57.502Z,27.29
2022-08-05T05:44:43.112Z,27.28
2022-08-05T05:45:37.796Z,27.28
2022-08-05T05:46:37.829Z,27.31
2022-08-05T05:48:06.574Z,27.34
2022-08-05T05:48:37.849Z,27.21
2022-08-05T05:49:37.841Z,27.36
2022-08-05T05:50:44.413Z,27.31
2022-08-05T05:51:49.990Z,27.27
2022-08-05T05:52:38.120Z,27.34
2022-08-05T05:53:45.945Z,27.34
2022-08-05T05:54:50.985Z,27.21
2022-08-05T05:55:52.012Z,27.27
2022-08-05T05:56:37.896Z,27.18
2022-08-05T05:57:51.971Z,27.17
2022-08-05T05:58:37.926Z,27.17
2022-08-05T05:59:40.269Z,27.06
2022-08-05T06:00:37.936Z,26.91
2022-08-05T06:01:39.588Z,26.94
2022-08-05T06:02:37.945Z,26.92
2022-08-05T06:03:53.944Z,26.95
2022-08-05T06:04:38.007Z,26.91
2022-08-05T06:05:37.966Z,26.84
2022-08-05T06:06:37.962Z,26.84
2022-08-05T06:07:41.515Z,26.80
2022-08-05T06:08:39.658Z,26.80
2022-08-05T06:10:00.156Z,26.77
2022-08-05T06:10:52.517Z,26.75
2022-08-05T06:11:39.313Z,26.67
2022-08-05T06:12:38.103Z,26.58
2022-08-05T06:13:40.753Z,26.58
2022-08-05T06:14:40.258Z,26.43
2022-08-05T06:16:31.354Z,26.50
2022-08-05T06:16:38.064Z,26.45
2022-08-05T06:17:52.598Z,26.37
2022-08-05T06:18:39.429Z,26.29
2022-08-05T06:19:38.065Z,26.32
2022-08-05T06:20:38.073Z,26.33
2022-08-05T06:21:38.130Z,26.30
2022-08-05T06:22:38.089Z,26.30
2022-08-05T06:23:43.978Z,26.26
2022-08-05T06:24:38.107Z,26.30
2022-08-05T06:26:12.114Z,26.25
2022-08-05T06:26:38.145Z,26.13
2022-08-05T06:28:12.854Z,26.12
2022-08-05T06:28:38.131Z,26.12
2022-08-05T06:29:51.926Z,26.17
2022-08-05T06:30:38.149Z,26.13
2022-08-05T06:31:38.182Z,26.13
2022-08-05T06:32:38.170Z,26.13
2022-08-05T06:34:07.100Z,26.25
2022-08-05T06:34:38.169Z,26.29
2022-08-05T06:36:07.684Z,26.32
2022-08-05T06:36:57.256Z,26.29
2022-08-05T06:37:39.423Z,26.36
2022-08-05T06:38:38.209Z,26.37
2022-08-05T06:39:38.252Z,26.48
2022-08-05T06:40:38.207Z,26.39
2022-08-05T06:41:40.577Z,26.39
2022-08-05T06:42:39.776Z,26.48
2022-08-05T06:43:57.263Z,26.57
2022-08-05T06:44:38.253Z,26.47
2022-08-05T06:45:45.116Z,26.51
2022-08-05T06:46:38.262Z,26.60
2022-08-05T06:48:37.143Z,26.52
2022-08-05T06:48:56.319Z,26.72
2022-08-05T06:50:00.644Z,26.66
2022-08-05T06:50:38.287Z,26.70
2022-08-05T06:51:40.827Z,26.75
2022-08-05T06:52:40.345Z,26.75
2022-08-05T06:53:39.095Z,26.73
2022-08-05T06:54:38.329Z,26.81
2022-08-05T06:55:38.327Z,26.85
2022-08-05T06:56:38.352Z,26.85
2022-08-05T06:58:02.784Z,26.82
2022-08-05T06:58:38.606Z,26.89
2022-08-05T06:59:38.496Z,26.91
2022-08-05T07:00:38.382Z,26.99
2022-08-05T07:01:40.831Z,26.99
2022-08-05T07:02:38.372Z,27.12
2022-08-05T07:03:38.392Z,27.09
2022-08-05T07:04:38.402Z,27.07
2022-08-05T07:05:41.324Z,27.25
2022-08-05T07:06:38.413Z,27.28
2022-08-05T07:07:43.232Z,27.22
2022-08-05T07:08:38.421Z,27.29
2022-08-05T07:09:40.652Z,27.36
2022-08-05T07:10:38.457Z,27.40
2022-08-05T07:11:40.005Z,27.49
2022-08-05T07:12:38.454Z,27.57
2022-08-05T07:13:57.913Z,27.65
2022-08-05T07:14:38.480Z,27.63
2022-08-05T07:16:01.098Z,27.67
2022-08-05T07:17:58.778Z,27.67
2022-08-05T07:18:01.907Z,27.75
2022-08-05T07:18:38.493Z,27.67
2022-08-05T07:20:39.031Z,27.72
2022-08-05T07:22:00.878Z,27.72
2022-08-05T07:22:38.548Z,27.66
2022-08-05T07:23:40.608Z,27.60
2022-08-05T07:24:43.961Z,27.57
2022-08-05T07:25:56.042Z,27.51
2022-08-05T07:26:38.557Z,27.41
2022-08-05T07:27:58.658Z,27.43
2022-08-05T07:28:38.580Z,27.43
2022-08-05T07:30:25.710Z,27.43
2022-08-05T07:30:39.743Z,27.34
2022-08-05T07:31:40.663Z,27.32
2022-08-05T07:32:38.617Z,27.31
2022-08-05T07:33:38.642Z,27.32
2022-08-05T07:34:42.153Z,27.27
2022-08-05T07:36:03.089Z,27.34
2022-08-05T07:36:38.660Z,27.32
2022-08-05T07:37:39.522Z,27.31
2022-08-05T07:38:43.441Z,27.29
2022-08-05T07:40:26.191Z,27.32
2022-08-05T07:40:38.721Z,27.36
2022-08-05T07:42:14.649Z,27.34
2022-08-05T07:42:38.739Z,27.32
2022-08-05T07:43:38.712Z,27.29
2022-08-05T07:44:38.691Z,27.34
2022-08-05T07:45:56.516Z,27.31
2022-08-05T07:46:38.719Z,27.31
2022-08-05T07:47:42.534Z,27.44
2022-08-05T07:49:01.615Z,27.44
2022-08-05T07:49:43.501Z,27.29
2022-08-05T07:50:38.756Z,27.29
2022-08-05T07:51:41.079Z,27.28
2022-08-05T07:52:38.772Z,27.29
2022-08-05T07:53:50.319Z,27.25
2022-08-05T07:54:47.559Z,27.36
2022-08-05T07:55:44.179Z,27.34
2022-08-05T07:57:00.123Z,27.31
2022-08-05T07:57:51.390Z,27.32
2022-08-05T07:58:57.636Z,27.31
2022-08-05T07:59:40.371Z,27.32
2022-08-05T08:00:38.885Z,27.27
2022-08-05T08:01:41.657Z,27.27
2022-08-05T08:03:14.834Z,27.31
2022-08-05T08:03:44.326Z,27.28
2022-08-05T08:04:38.882Z,27.25
2022-08-05T08:05:39.476Z,27.27
2022-08-05T08:06:38.896Z,27.29
2022-08-05T08:07:39.588Z,27.25
2022-08-05T08:08:38.886Z,27.25
2022-08-05T08:09:38.920Z,27.21
2022-08-05T08:10:38.934Z,27.18
2022-08-05T08:11:47.168Z,27.25
2022-08-05T08:12:48.663Z,27.21
2022-08-05T08:13:42.976Z,27.19
2022-08-05T08:14:38.925Z,27.19
2022-08-05T08:16:34.490Z,27.22
2022-08-05T08:16:51.037Z,27.18
2022-08-05T08:17:38.979Z,27.27
2022-08-05T08:18:38.954Z,27.25
2022-08-05T08:20:20.973Z,27.21
2022-08-05T08:21:01.078Z,27.24
2022-08-05T08:21:39.005Z,27.19
2022-08-05T08:22:38.988Z,27.28
2022-08-05T08:24:02.310Z,27.24
2022-08-05T08:24:51.042Z,27.29
2022-08-05T08:26:00.310Z,27.27
2022-08-05T08:26:39.035Z,27.27
2022-08-05T08:27:44.969Z,27.24
2022-08-05T08:28:55.202Z,27.27
2022-08-05T08:30:06.155Z,27.29
2022-08-05T08:30:48.011Z,27.24
2022-08-05T08:31:39.075Z,27.19
2022-08-05T08:32:41.782Z,27.28
2022-08-05T08:33:39.085Z,27.17
2022-08-05T08:34:39.093Z,27.14
2022-08-05T08:35:40.881Z,27.13
2022-08-05T08:36:49.014Z,27.07
2022-08-05T08:37:39.117Z,27.19
2022-08-05T08:38:39.109Z,27.18
2022-08-05T08:39:49.340Z,27.07
2022-08-05T08:40:39.145Z,27.09
2022-08-05T08:41:51.382Z,27.09
2022-08-05T08:42:50.649Z,27.09
2022-08-05T08:45:17.974Z,27.07
2022-08-05T08:45:18.857Z,27.09
2022-08-05T08:45:39.178Z,27.06
2022-08-05T08:46:39.170Z,27.13
2022-08-05T08:48:06.980Z,27.03
2022-08-05T08:48:42.955Z,27.06
2022-08-05T08:50:23.315Z,27.09
2022-08-05T08:51:23.311Z,27.10
2022-08-05T08:52:03.940Z,27.07
2022-08-05T08:52:39.238Z,27.03
2022-08-05T08:53:40.181Z,27.06
2022-08-05T08:54:39.248Z,27.09
2022-08-05T08:56:02.849Z,27.12
2022-08-05T08:56:39.615Z,27.10
2022-08-05T08:57:48.300Z,27.03
2022-08-05T08:58:44.288Z,27.09
2022-08-05T08:59:41.973Z,27.06
2022-08-05T09:00:39.303Z,27.02
2022-08-05T09:01:42.560Z,26.95
2022-08-05T09:02:39.728Z,26.99
2022-08-05T09:03:40.458Z,26.92
2022-08-05T09:04:58.435Z,26.92
2022-08-05T09:06:08.589Z,26.94
2022-08-05T09:06:39.339Z,26.95
2022-08-05T09:07:55.831Z,27.00
2022-08-05T09:08:40.457Z,26.89
2022-08-05T09:09:39.360Z,26.89
2022-08-05T09:10:40.227Z,26.91
2022-08-05T09:11:51.155Z,26.89
2022-08-05T09:12:39.379Z,26.92
2022-08-05T09:14:01.100Z,26.88
2022-08-05T09:14:59.092Z,26.91
2022-08-05T09:15:39.407Z,27.00
2022-08-05T09:16:39.399Z,26.89
2022-08-05T09:17:40.873Z,26.95
2022-08-05T09:18:43.775Z,26.99
2022-08-05T09:20:01.420Z,27.04
2022-08-05T09:20:39.448Z,27.14
2022-08-05T09:22:22.561Z,27.07
2022-08-05T09:22:39.824Z,27.25
2022-08-05T09:23:43.690Z,27.19
2022-08-05T09:24:39.465Z,27.27
2022-08-05T09:26:02.519Z,27.28
2022-08-05T09:26:39.479Z,27.24
2022-08-05T09:28:05.466Z,27.29
2022-08-05T09:28:39.511Z,27.29
2022-08-05T09:29:47.707Z,27.41
2022-08-05T09:30:39.525Z,27.37
2022-08-05T09:32:41.032Z,27.34
2022-08-05T09:32:43.055Z,27.31
2022-08-05T09:33:39.560Z,27.25
2022-08-05T09:34:39.563Z,27.28
2022-08-05T09:35:39.568Z,27.27
2022-08-05T09:36:54.106Z,27.24
2022-08-05T09:38:15.928Z,27.27
2022-08-05T09:38:39.585Z,27.31
2022-08-05T09:39:45.146Z,27.27
2022-08-05T09:40:39.598Z,27.32
2022-08-05T09:41:39.603Z,27.34
2022-08-05T09:42:39.618Z,27.41
2022-08-05T09:43:41.224Z,27.29
2022-08-05T09:44:39.618Z,27.27
2022-08-05T09:46:06.697Z,27.29
2022-08-05T09:46:39.644Z,27.32
2022-08-05T09:47:55.496Z,27.27
2022-08-05T09:48:39.659Z,27.25
2022-08-05T09:49:40.317Z,27.22
2022-08-05T09:50:44.427Z,27.21
2022-08-05T09:51:40.004Z,27.21
2022-08-05T09:52:45.067Z,27.18
2022-08-05T09:53:53.375Z,27.17
2022-08-05T09:54:39.704Z,27.25
2022-08-05T09:55:59.406Z,27.17
2022-08-05T09:56:39.739Z,27.22
2022-08-05T09:57:39.762Z,27.32
2022-08-05T09:58:41.862Z,27.21
2022-08-05T09:59:39.746Z,27.24
2022-08-05T10:00:39.775Z,27.25
2022-08-05T10:01:39.766Z,27.22
2022-08-05T10:02:39.844Z,27.13
2022-08-05T10:03:58.728Z,27.06
2022-08-05T10:04:39.890Z,26.94
2022-08-05T10:05:39.813Z,26.91
2022-08-05T10:06:39.788Z,26.77
2022-08-05T10:08:34.999Z,26.75
2022-08-05T10:08:42.509Z,26.66
2022-08-05T10:09:45.047Z,26.54
2022-08-05T10:10:39.844Z,26.58
2022-08-05T10:11:39.850Z,26.57
2022-08-05T10:12:40.218Z,26.52
2022-08-05T10:13:45.754Z,26.60
2022-08-05T10:14:39.864Z,26.57
2022-08-05T10:15:41.291Z,26.55
2022-08-05T10:16:52.504Z,26.67
2022-08-05T10:17:42.397Z,26.58
2022-08-05T10:18:39.895Z,26.60
2022-08-05T10:20:04.000Z,26.75
2022-08-05T10:20:39.898Z,26.70
2022-08-05T10:21:40.193Z,26.77
2022-08-05T10:22:42.768Z,26.70
2022-08-05T10:23:56.011Z,26.77
2022-08-05T10:24:39.939Z,26.69
2022-08-05T10:25:39.950Z,26.80
2022-08-05T10:26:48.895Z,26.82
2022-08-05T10:28:13.214Z,26.82
2022-08-05T10:28:39.955Z,26.70
2022-08-05T10:30:06.468Z,26.70
2022-08-05T10:31:20.751Z,26.75
2022-08-05T10:32:51.847Z,26.67
2022-08-05T10:33:01.150Z,26.65
2022-08-05T10:33:40.013Z,26.66
2022-08-05T10:34:40.664Z,26.63
2022-08-05T10:35:40.523Z,26.67
2022-08-05T10:36:40.030Z,26.67
2022-08-05T10:37:44.975Z,26.52
2022-08-05T10:38:40.112Z,26.51
2022-08-05T10:40:03.845Z,26.60
2022-08-05T10:40:43.534Z,26.51
2022-08-05T10:41:46.995Z,26.48
2022-08-05T10:42:43.815Z,26.51
2022-08-05T10:43:40.069Z,26.51
2022-08-05T10:44:40.118Z,26.48
2022-08-05T10:45:42.289Z,26.44
2022-08-05T10:46:40.107Z,26.45
2022-08-05T10:47:40.166Z,26.37
2022-08-05T10:48:56.831Z,26.33
2022-08-05T10:49:48.759Z,26.20
2022-08-05T10:50:40.139Z,26.23
2022-08-05T10:51:40.142Z,26.25
2022-08-05T10:52:40.139Z,26.28
2022-08-05T10:53:42.565Z,26.30
2022-08-05T10:54:46.908Z,26.29
2022-08-05T10:56:05.022Z,26.36
2022-08-05T10:56:40.175Z,26.28
2022-08-05T10:57:40.182Z,26.30
2022-08-05T10:58:48.589Z,26.36
2022-08-05T11:00:02.794Z,26.36
2022-08-05T11:00:42.014Z,26.51
2022-08-05T11:01:55.158Z,26.39
2022-08-05T11:02:43.742Z,26.45
2022-08-05T11:03:40.281Z,26.50
2022-08-05T11:04:40.245Z,26.43
2022-08-05T11:05:40.253Z,26.57
2022-08-05T11:06:40.258Z,26.60
2022-08-05T11:08:01.155Z,26.80
2022-08-05T11:08:40.273Z,26.99
2022-08-05T11:09:46.199Z,27.10
2022-08-05T11:10:50.225Z,27.24
2022-08-05T11:11:44.684Z,27.36
2022-08-05T11:12:41.119Z,27.72
2022-08-05T11:13:40.325Z,28.21
2022-08-05T11:15:01.398Z,28.64
2022-08-05T11:16:00.068Z,29.00
2022-08-05T11:16:47.962Z,29.68
2022-08-05T11:17:56.722Z,29.89
2022-08-05T11:18:46.911Z,30.42
2022-08-05T11:20:17.194Z,30.91
2022-08-05T11:20:41.799Z,31.21
2022-08-05T11:21:40.858Z,31.54
2022-08-05T11:22:42.121Z,31.91
2022-08-05T11:24:04.181Z,32.18
2022-08-05T11:24:40.408Z,32.11
2022-08-05T11:26:04.789Z,32.55
2022-08-05T11:26:40.582Z,33.16
2022-08-05T11:27:51.180Z,33.57
2022-08-05T11:28:40.450Z,33.39
2022-08-05T11:29:40.456Z,33.07
2022-08-05T11:30:40.459Z,32.89
2022-08-05T11:31:57.501Z,32.65
2022-08-05T11:32:40.490Z,32.32
2022-08-05T11:33:46.527Z,32.07
2022-08-05T11:34:50.945Z,31.61
2022-08-05T11:36:02.880Z,31.28
2022-08-05T11:36:42.877Z,31.02
2022-08-05T11:38:37.230Z,30.99
2022-08-05T11:38:45.531Z,31.65
2022-08-05T11:39:40.658Z,32.43
2022-08-05T11:40:40.571Z,32.79
2022-08-05T11:42:00.982Z,33.09
2022-08-05T11:42:40.720Z,33.41
2022-08-05T11:44:00.760Z,33.72
2022-08-05T11:44:53.711Z,33.57
2022-08-05T11:46:27.107Z,33.38
2022-08-05T11:47:09.563Z,33.54
2022-08-05T11:47:49.614Z,34.00
2022-08-05T11:48:40.667Z,34.27
2022-08-05T11:49:42.767Z,34.56
2022-08-05T11:50:40.696Z,34.82
2022-08-05T11:51:44.425Z,35.25
2022-08-05T11:52:40.706Z,34.70
2022-08-05T11:53:40.846Z,34.59
2022-08-05T11:54:41.621Z,34.61
2022-08-05T11:55:40.754Z,34.89
2022-08-05T11:56:41.331Z,35.06
2022-08-05T11:58:09.265Z,34.85
2022-08-05T11:58:40.770Z,34.62
2022-08-05T11:59:41.358Z,34.61
2022-08-05T12:00:41.364Z,34.31
2022-08-05T12:01:40.810Z,34.17
2022-08-05T12:02:40.886Z,34.06
2022-08-05T12:03:40.870Z,33.61
2022-08-05T12:04:40.845Z,33.34
2022-08-05T12:05:43.629Z,33.15
2022-08-05T12:06:40.855Z,33.09
2022-08-05T12:08:03.553Z,32.96
2022-08-05T12:08:40.873Z,32.77
2022-08-05T12:09:53.221Z,32.69
2022-08-05T12:10:45.598Z,32.72
2022-08-05T12:11:41.814Z,32.65
2022-08-05T12:12:59.234Z,32.59
2022-08-05T12:13:49.513Z,32.63
2022-08-05T12:14:43.240Z,32.52
2022-08-05T12:15:40.954Z,32.67
2022-08-05T12:16:40.959Z,32.44
2022-08-05T12:18:00.795Z,32.32
2022-08-05T12:18:40.977Z,32.35
2022-08-05T12:20:25.498Z,32.33
2022-08-05T12:20:41.459Z,32.33
2022-08-05T12:21:41.022Z,32.47
2022-08-05T12:22:41.018Z,32.48
2022-08-05T12:23:43.173Z,32.51
2022-08-05T12:24:41.040Z,32.60
2022-08-05T12:25:41.039Z,32.56
2022-08-05T12:26:44.102Z,32.66
2022-08-05T12:27:44.317Z,32.66
2022-08-05T12:28:41.079Z,32.56
2022-08-05T12:29:41.092Z,32.47
2022-08-05T12:30:46.097Z,32.51
2022-08-05T12:31:49.725Z,32.38
2022-08-05T12:32:41.115Z,32.35
2022-08-05T12:33:41.124Z,32.38
2022-08-05T12:34:41.128Z,32.33
2022-08-05T12:35:41.152Z,32.35
2022-08-05T12:36:41.262Z,32.32
2022-08-05T12:37:41.161Z,32.32
2022-08-05T12:38:41.593Z,32.40
2022-08-05T12:39:41.209Z,32.32
2022-08-05T12:40:44.234Z,32.38
2022-08-05T12:41:43.570Z,32.14
2022-08-05T12:42:41.224Z,32.06
2022-08-05T12:43:41.231Z,32.06
2022-08-05T12:44:41.238Z,31.96
2022-08-05T12:45:49.808Z,32.04
2022-08-05T12:46:41.285Z,32.01
2022-08-05T12:47:43.350Z,31.95
2022-08-05T12:48:41.283Z,32.06
2022-08-05T12:50:04.529Z,32.07
2022-08-05T12:50:41.300Z,32.10
2022-08-05T12:52:12.542Z,32.08
2022-08-05T12:52:42.443Z,31.99
2022-08-05T12:53:41.344Z,32.04